createdAt,value
2019-03-12T00:00:56.261Z,0.00
2019-03-12T00:01:56.331Z,0.00
2019-03-12T00:02:56.478Z,0.00
2019-03-12T00:03:56.382Z,0.00
2019-03-12T00:04:56.420Z,0.00
2019-03-12T00:05:56.496Z,0.00
2019-03-12T00:06:56.691Z,0.00
2019-03-12T00:07:56.542Z,0.00
2019-03-12T00:08:56.584Z,0.00
2019-03-12T00:09:56.625Z,0.00
2019-03-12T00:10:56.665Z,0.00
2019-03-12T00:11:56.731Z,0.00
2019-03-12T00:12:56.755Z,0.00
2019-03-12T00:13:56.791Z,0.00
2019-03-12T00:14:56.828Z,0.00
2019-03-12T00:15:56.875Z,0.00
2019-03-12T00:16:57.100Z,0.00
2019-03-12T00:17:56.964Z,0.00
2019-03-12T00:18:56.993Z,0.00
2019-03-12T00:19:57.033Z,0.00
2019-03-12T00:20:57.072Z,0.00
2019-03-12T00:21:57.516Z,0.00
2019-03-12T00:22:57.157Z,0.00
2019-03-12T00:23:57.304Z,0.00
2019-03-12T00:24:57.236Z,0.00
2019-03-12T00:25:57.276Z,0.00
2019-03-12T00:26:57.341Z,0.00
2019-03-12T00:27:57.381Z,0.00
2019-03-12T00:28:57.397Z,0.00
2019-03-12T00:29:57.448Z,0.00
2019-03-12T00:30:57.571Z,0.00
2019-03-12T00:31:57.524Z,0.00
2019-03-12T00:32:57.582Z,0.00
2019-03-12T00:33:57.605Z,0.00
2019-03-12T00:34:57.652Z,0.00
2019-03-12T00:35:57.686Z,0.00
2019-03-12T00:36:57.732Z,0.00
2019-03-12T00:37:57.795Z,0.00
2019-03-12T00:38:57.827Z,0.00
2019-03-12T00:39:57.851Z,0.00
2019-03-12T00:40:57.894Z,0.00
2019-03-12T00:41:57.933Z,0.00
2019-03-12T00:42:57.974Z,0.00
2019-03-12T00:43:58.034Z,0.00
2019-03-12T00:44:58.055Z,0.00
2019-03-12T00:45:58.093Z,0.00
2019-03-12T00:46:58.142Z,0.00
2019-03-12T00:47:58.198Z,0.00
2019-03-12T00:48:58.216Z,0.00
2019-03-12T00:49:58.266Z,0.00
2019-03-12T00:50:58.298Z,0.00
2019-03-12T00:51:58.355Z,0.00
2019-03-12T00:52:58.405Z,0.00
2019-03-12T00:53:58.429Z,0.00
2019-03-12T00:54:58.479Z,0.00
2019-03-12T00:55:58.513Z,0.00
2019-03-12T00:56:58.544Z,0.00
2019-03-12T00:57:58.665Z,0.00
2019-03-12T00:58:58.627Z,0.00
2019-03-12T00:59:58.695Z,0.00
2019-03-12T01:00:58.714Z,0.00
2019-03-12T01:01:58.747Z,0.00
2019-03-12T01:02:58.808Z,0.00
2019-03-12T01:03:58.837Z,0.00
2019-03-12T01:04:58.887Z,0.00
2019-03-12T01:05:58.913Z,0.00
2019-03-12T01:06:58.957Z,0.00
2019-03-12T01:07:59.012Z,0.00
2019-03-12T01:08:59.031Z,0.00
2019-03-12T01:09:59.094Z,0.00
2019-03-12T01:10:59.140Z,0.00
2019-03-12T01:11:59.158Z,0.00
2019-03-12T01:12:59.200Z,0.00
2019-03-12T01:13:59.257Z,0.00
2019-03-12T01:14:59.285Z,0.00
2019-03-12T01:15:59.317Z,0.00
2019-03-12T01:16:59.371Z,0.00
2019-03-12T01:17:59.403Z,0.00
2019-03-12T01:18:59.461Z,0.00
2019-03-12T01:19:59.489Z,0.00
2019-03-12T01:20:59.531Z,0.00
2019-03-12T01:21:59.563Z,0.00
2019-03-12T01:22:59.638Z,0.00
2019-03-12T01:23:59.686Z,0.00
2019-03-12T01:24:59.684Z,0.00
2019-03-12T01:25:59.725Z,0.00
2019-03-12T01:26:59.780Z,0.00
2019-03-12T01:27:59.807Z,0.00
2019-03-12T01:28:59.899Z,0.00
2019-03-12T01:29:59.893Z,0.00
2019-03-12T01:30:59.938Z,0.00
2019-03-12T01:31:59.971Z,0.00
2019-03-12T01:33:00.017Z,0.00
2019-03-12T01:34:00.195Z,0.00
2019-03-12T01:35:00.115Z,0.00
2019-03-12T01:36:00.145Z,0.00
2019-03-12T01:37:00.175Z,0.00
2019-03-12T01:38:00.221Z,0.00
2019-03-12T01:39:00.289Z,0.00
2019-03-12T01:40:00.444Z,0.00
2019-03-12T01:41:00.368Z,0.00
2019-03-12T01:42:00.386Z,0.00
2019-03-12T01:43:00.425Z,0.00
2019-03-12T01:44:00.463Z,0.00
2019-03-12T01:45:00.530Z,0.00
2019-03-12T01:46:00.546Z,0.00
2019-03-12T01:47:00.603Z,0.00
2019-03-12T01:48:00.681Z,0.00
2019-03-12T01:49:00.666Z,0.00
2019-03-12T01:50:00.746Z,0.00
2019-03-12T01:51:00.747Z,0.00
2019-03-12T01:52:00.792Z,0.00
2019-03-12T01:53:00.829Z,0.00
2019-03-12T01:54:00.960Z,0.00
2019-03-12T01:55:01.012Z,0.00
2019-03-12T01:56:00.955Z,0.00
2019-03-12T01:57:00.995Z,0.00
2019-03-12T01:58:01.040Z,0.00
2019-03-12T01:59:01.092Z,0.00
2019-03-12T02:00:01.140Z,0.00
2019-03-12T02:01:01.178Z,0.00
2019-03-12T02:02:01.211Z,0.00
2019-03-12T02:03:01.244Z,0.00
2019-03-12T02:04:01.282Z,0.00
2019-03-12T02:05:01.319Z,0.00
2019-03-12T02:06:01.380Z,0.00
2019-03-12T02:07:01.424Z,0.00
2019-03-12T02:08:01.443Z,0.00
2019-03-12T02:09:01.483Z,0.00
2019-03-12T02:10:01.526Z,0.00
2019-03-12T02:11:01.583Z,0.00
2019-03-12T02:12:01.641Z,0.00
2019-03-12T02:13:01.651Z,0.00
2019-03-12T02:14:01.700Z,0.00
2019-03-12T02:15:01.735Z,0.00
2019-03-12T02:16:01.773Z,0.00
2019-03-12T02:17:01.850Z,0.00
2019-03-12T02:18:01.854Z,0.00
2019-03-12T02:19:01.898Z,0.00
2019-03-12T02:20:01.936Z,0.00
2019-03-12T02:21:01.976Z,0.00
2019-03-12T02:22:02.039Z,0.00
2019-03-12T02:23:02.056Z,0.00
2019-03-12T02:24:02.100Z,0.00
2019-03-12T02:25:02.149Z,0.00
2019-03-12T02:26:02.180Z,0.00
2019-03-12T02:27:02.239Z,0.00
2019-03-12T02:28:02.312Z,0.00
2019-03-12T02:29:02.306Z,0.00
2019-03-12T02:30:02.361Z,0.00
2019-03-12T02:31:02.387Z,0.00
2019-03-12T02:32:02.445Z,0.00
2019-03-12T02:33:02.487Z,0.00
2019-03-12T02:34:02.513Z,0.00
2019-03-12T02:35:02.554Z,0.00
2019-03-12T02:36:02.595Z,0.00
2019-03-12T02:37:02.629Z,0.00
2019-03-12T02:38:02.698Z,0.00
2019-03-12T02:39:02.713Z,0.00
2019-03-12T02:40:02.760Z,0.00
2019-03-12T02:41:02.798Z,0.00
2019-03-12T02:42:02.882Z,0.00
2019-03-12T02:43:02.905Z,0.00
2019-03-12T02:44:02.920Z,0.00
2019-03-12T02:45:02.981Z,0.00
2019-03-12T02:46:02.997Z,0.00
2019-03-12T02:47:03.040Z,0.00
2019-03-12T02:48:03.110Z,0.00
2019-03-12T02:49:03.122Z,0.00
2019-03-12T02:50:03.170Z,0.00
2019-03-12T02:51:03.205Z,0.00
2019-03-12T02:52:03.252Z,0.00
2019-03-12T02:53:03.303Z,0.00
2019-03-12T02:54:03.336Z,0.00
2019-03-12T02:55:03.386Z,0.00
2019-03-12T02:56:03.416Z,0.00
2019-03-12T02:57:03.457Z,0.00
2019-03-12T02:58:03.517Z,0.00
2019-03-12T02:59:03.534Z,0.00
2019-03-12T03:00:03.578Z,0.00
2019-03-12T03:01:03.609Z,0.00
2019-03-12T03:02:03.653Z,0.00
2019-03-12T03:03:03.726Z,0.00
2019-03-12T03:04:03.737Z,0.00
2019-03-12T03:05:03.780Z,0.00
2019-03-12T03:06:03.848Z,0.00
2019-03-12T03:07:03.856Z,0.00
2019-03-12T03:08:03.933Z,0.00
2019-03-12T03:09:03.946Z,0.00
2019-03-12T03:10:04.089Z,0.00
2019-03-12T03:11:04.026Z,0.00
2019-03-12T03:12:04.062Z,0.00
2019-03-12T03:13:04.142Z,0.00
2019-03-12T03:14:04.156Z,0.00
2019-03-12T03:15:04.186Z,0.00
2019-03-12T03:16:04.225Z,0.00
2019-03-12T03:17:04.265Z,0.00
2019-03-12T03:18:04.329Z,0.00
2019-03-12T03:19:04.350Z,0.00
2019-03-12T03:20:04.391Z,0.00
2019-03-12T03:21:04.431Z,0.00
2019-03-12T03:22:04.477Z,0.00
2019-03-12T03:23:04.563Z,0.00
2019-03-12T03:24:04.574Z,0.00
2019-03-12T03:25:04.592Z,0.00
2019-03-12T03:26:04.636Z,0.00
2019-03-12T03:27:04.684Z,0.00
2019-03-12T03:28:04.721Z,0.00
2019-03-12T03:29:04.774Z,0.00
2019-03-12T03:30:04.830Z,0.00
2019-03-12T03:31:04.921Z,0.00
2019-03-12T03:32:04.894Z,0.00
2019-03-12T03:33:04.996Z,0.00
2019-03-12T03:34:05.001Z,0.00
2019-03-12T03:35:05.010Z,0.00
2019-03-12T03:36:05.044Z,0.00
2019-03-12T03:37:05.079Z,0.00
2019-03-12T03:38:05.168Z,0.00
2019-03-12T03:39:05.183Z,0.00
2019-03-12T03:40:05.206Z,0.00
2019-03-12T03:41:05.972Z,0.00
2019-03-12T03:42:05.283Z,0.00
2019-03-12T03:43:05.324Z,0.00
2019-03-12T03:44:05.388Z,0.00
2019-03-12T03:45:05.404Z,0.00
2019-03-12T03:46:05.458Z,0.00
2019-03-12T03:47:05.486Z,0.00
2019-03-12T03:48:05.533Z,0.00
2019-03-12T03:49:05.601Z,0.00
2019-03-12T03:50:05.608Z,0.00
2019-03-12T03:51:05.648Z,0.00
2019-03-12T03:52:05.698Z,0.00
2019-03-12T03:53:05.725Z,0.00
2019-03-12T03:54:05.801Z,0.00
2019-03-12T03:55:05.830Z,0.00
2019-03-12T03:56:05.845Z,0.00
2019-03-12T03:57:05.888Z,0.00
2019-03-12T03:58:05.932Z,0.00
2019-03-12T03:59:05.974Z,0.00
2019-03-12T04:00:06.038Z,0.00
2019-03-12T04:01:06.054Z,0.00
2019-03-12T04:02:06.093Z,0.00
2019-03-12T04:03:06.132Z,0.00
2019-03-12T04:04:06.194Z,0.00
2019-03-12T04:05:06.240Z,0.00
2019-03-12T04:06:06.275Z,0.00
2019-03-12T04:07:06.296Z,0.00
2019-03-12T04:08:06.338Z,0.00
2019-03-12T04:09:06.373Z,0.00
2019-03-12T04:10:06.437Z,0.00
2019-03-12T04:11:06.453Z,0.00
2019-03-12T04:12:06.499Z,0.00
2019-03-12T04:13:06.535Z,0.00
2019-03-12T04:14:06.587Z,0.00
2019-03-12T04:15:06.631Z,0.00
2019-03-12T04:16:06.665Z,0.00
2019-03-12T04:17:06.715Z,0.00
2019-03-12T04:18:06.746Z,0.00
2019-03-12T04:19:06.778Z,0.00
2019-03-12T04:20:06.903Z,0.00
2019-03-12T04:21:06.879Z,0.00
2019-03-12T04:22:06.900Z,0.00
2019-03-12T04:23:06.942Z,0.00
2019-03-12T04:24:06.979Z,0.00
2019-03-12T04:25:07.035Z,0.00
2019-03-12T04:26:07.095Z,0.00
2019-03-12T04:27:07.112Z,0.00
2019-03-12T04:28:07.142Z,0.00
2019-03-12T04:29:07.187Z,0.00
2019-03-12T04:30:07.223Z,0.00
2019-03-12T04:31:07.292Z,0.00
2019-03-12T04:32:07.307Z,0.00
2019-03-12T04:33:07.343Z,0.00
2019-03-12T04:34:07.393Z,0.00
2019-03-12T04:35:07.427Z,0.00
2019-03-12T04:36:07.485Z,0.00
2019-03-12T04:37:07.508Z,0.00
2019-03-12T04:38:07.546Z,0.00
2019-03-12T04:39:07.589Z,0.00
2019-03-12T04:40:07.629Z,0.00
2019-03-12T04:41:07.722Z,0.00
2019-03-12T04:42:07.711Z,0.00
2019-03-12T04:43:07.756Z,0.00
2019-03-12T04:44:07.791Z,0.00
2019-03-12T04:45:07.835Z,0.00
2019-03-12T04:46:07.893Z,0.00
2019-03-12T04:47:07.911Z,0.00
2019-03-12T04:48:07.954Z,0.00
2019-03-12T04:49:08.002Z,0.00
2019-03-12T04:50:08.035Z,0.00
2019-03-12T04:51:08.099Z,0.00
2019-03-12T04:52:08.120Z,0.00
2019-03-12T04:53:08.163Z,0.00
2019-03-12T04:54:08.198Z,0.00
2019-03-12T04:55:08.243Z,0.00
2019-03-12T04:56:08.312Z,0.00
2019-03-12T04:57:08.344Z,0.00
2019-03-12T04:58:08.361Z,0.00
2019-03-12T04:59:08.487Z,0.00
2019-03-12T05:00:08.441Z,0.00
2019-03-12T05:01:08.486Z,0.00
2019-03-12T05:02:08.546Z,0.00
2019-03-12T05:03:08.668Z,0.00
2019-03-12T05:04:08.605Z,0.00
2019-03-12T05:05:08.644Z,0.00
2019-03-12T05:06:08.686Z,0.00
2019-03-12T05:07:08.756Z,0.00
2019-03-12T05:08:08.765Z,0.00
2019-03-12T05:09:08.808Z,0.00
2019-03-12T05:10:08.850Z,0.00
2019-03-12T05:11:08.888Z,0.00
2019-03-12T05:12:08.954Z,0.00
2019-03-12T05:13:08.970Z,4.00
2019-03-12T05:14:09.012Z,4.00
2019-03-12T05:15:09.051Z,0.00
2019-03-12T05:16:09.117Z,4.00
2019-03-12T05:17:09.158Z,4.00
2019-03-12T05:18:09.174Z,4.00
2019-03-12T05:19:09.213Z,4.00
2019-03-12T05:20:09.254Z,8.00
2019-03-12T05:21:09.295Z,12.00
2019-03-12T05:22:09.383Z,12.00
2019-03-12T05:23:09.383Z,12.00
2019-03-12T05:24:09.417Z,16.00
2019-03-12T05:25:09.455Z,20.00
2019-03-12T05:26:09.498Z,24.00
2019-03-12T05:27:09.567Z,28.00
2019-03-12T05:28:09.604Z,36.00
2019-03-12T05:29:09.622Z,40.00
2019-03-12T05:30:09.663Z,48.00
2019-03-12T05:31:09.702Z,56.00
2019-03-12T05:32:09.759Z,68.00
2019-03-12T05:33:09.802Z,80.00
2019-03-12T05:34:09.841Z,96.00
2019-03-12T05:35:09.871Z,112.00
2019-03-12T05:36:09.903Z,128.00
2019-03-12T05:37:09.945Z,148.00
2019-03-12T05:38:10.004Z,176.00
2019-03-12T05:39:10.048Z,204.00
2019-03-12T05:40:10.069Z,232.00
2019-03-12T05:41:12.214Z,260.00
2019-03-12T05:42:10.162Z,284.00
2019-03-12T05:43:10.208Z,312.00
2019-03-12T05:44:10.245Z,348.00
2019-03-12T05:45:10.265Z,384.00
2019-03-12T05:46:10.312Z,432.00
2019-03-12T05:47:10.351Z,480.00
2019-03-12T05:48:10.413Z,524.00
2019-03-12T05:49:10.430Z,560.00
2019-03-12T05:50:10.513Z,596.00
2019-03-12T05:51:10.509Z,628.00
2019-03-12T05:52:10.549Z,672.00
2019-03-12T05:53:10.655Z,720.00
2019-03-12T05:54:10.655Z,772.00
2019-03-12T05:55:10.685Z,816.00
2019-03-12T05:56:10.717Z,856.00
2019-03-12T05:57:10.751Z,904.00
2019-03-12T05:58:10.811Z,956.00
2019-03-12T05:59:10.848Z,1012.00
2019-03-12T06:00:10.985Z,1064.00
2019-03-12T06:01:10.913Z,1104.00
2019-03-12T06:02:10.953Z,1136.00
2019-03-12T06:03:10.993Z,1180.00
2019-03-12T06:04:11.071Z,1232.00
2019-03-12T06:05:11.071Z,1276.00
2019-03-12T06:06:11.112Z,1312.00
2019-03-12T06:07:11.155Z,1344.00
2019-03-12T06:08:11.200Z,1384.00
2019-03-12T06:09:11.258Z,1428.00
2019-03-12T06:10:11.278Z,1476.00
2019-03-12T06:11:11.314Z,1520.00
2019-03-12T06:12:11.353Z,1568.00
2019-03-12T06:13:11.401Z,1612.00
2019-03-12T06:14:11.470Z,1664.00
2019-03-12T06:15:11.473Z,1732.00
2019-03-12T06:16:11.520Z,1812.00
2019-03-12T06:17:11.562Z,1880.00
2019-03-12T06:18:11.602Z,1952.00
2019-03-12T06:19:11.656Z,2044.00
2019-03-12T06:20:11.679Z,2136.00
2019-03-12T06:21:11.715Z,2240.00
2019-03-12T06:22:12.301Z,2328.00
2019-03-12T06:23:15.038Z,2440.00
2019-03-12T06:24:11.872Z,2532.00
2019-03-12T06:25:11.893Z,2604.00
2019-03-12T06:26:11.921Z,2704.00
2019-03-12T06:27:11.952Z,2760.00
2019-03-12T06:28:11.993Z,2824.00
2019-03-12T06:29:12.039Z,2892.00
2019-03-12T06:30:12.110Z,2988.00
2019-03-12T06:31:12.112Z,3252.00
2019-03-12T06:32:12.162Z,3280.00
2019-03-12T06:33:12.189Z,3300.00
2019-03-12T06:34:12.242Z,3140.00
2019-03-12T06:35:12.296Z,3408.00
2019-03-12T06:36:12.318Z,3476.00
2019-03-12T06:37:12.353Z,4052.00
2019-03-12T06:38:12.395Z,3580.00
2019-03-12T06:39:12.436Z,3676.00
2019-03-12T06:40:12.519Z,4404.00
2019-03-12T06:41:12.513Z,5388.00
2019-03-12T06:42:12.555Z,3740.00
2019-03-12T06:43:12.603Z,4096.00
2019-03-12T06:44:12.641Z,4312.00
2019-03-12T06:45:13.690Z,3704.00
2019-03-12T06:46:12.717Z,3636.00
2019-03-12T06:47:12.778Z,3596.00
2019-03-12T06:48:12.902Z,3960.00
2019-03-12T06:49:12.837Z,4680.00
2019-03-12T06:50:12.913Z,4244.00
2019-03-12T06:51:12.928Z,4068.00
2019-03-12T06:52:12.958Z,3756.00
2019-03-12T06:53:12.998Z,3872.00
2019-03-12T06:54:13.050Z,4016.00
2019-03-12T06:55:13.170Z,4280.00
2019-03-12T06:56:13.147Z,4404.00
2019-03-12T06:57:13.164Z,4216.00
2019-03-12T06:58:13.203Z,4088.00
2019-03-12T06:59:13.257Z,4236.00
2019-03-12T07:00:13.286Z,4948.00
2019-03-12T07:01:13.350Z,4896.00
2019-03-12T07:02:13.378Z,4540.00
2019-03-12T07:03:13.415Z,4636.00
2019-03-12T07:04:13.458Z,5284.00
2019-03-12T07:05:13.496Z,5064.00
2019-03-12T07:06:13.554Z,4400.00
2019-03-12T07:07:16.813Z,4752.00
2019-03-12T07:08:13.618Z,5984.00
2019-03-12T07:09:13.660Z,5364.00
2019-03-12T07:10:13.706Z,5452.00
2019-03-12T07:11:13.778Z,6676.00
2019-03-12T07:12:13.788Z,5864.00
2019-03-12T07:13:13.824Z,5488.00
2019-03-12T07:14:13.871Z,4700.00
2019-03-12T07:15:13.904Z,4668.00
2019-03-12T07:16:13.972Z,4848.00
2019-03-12T07:17:14.006Z,5112.00
2019-03-12T07:18:14.040Z,5064.00
2019-03-12T07:19:14.074Z,4812.00
2019-03-12T07:20:14.127Z,4912.00
2019-03-12T07:21:14.165Z,5208.00
2019-03-12T07:22:14.219Z,5296.00
2019-03-12T07:23:14.240Z,4940.00
2019-03-12T07:24:14.292Z,4872.00
2019-03-12T07:25:14.324Z,4928.00
2019-03-12T07:26:14.381Z,4932.00
2019-03-12T07:27:14.475Z,5108.00
2019-03-12T07:28:14.452Z,5276.00
2019-03-12T07:29:14.487Z,5092.00
2019-03-12T07:30:14.535Z,5108.00
2019-03-12T07:31:14.586Z,5148.00
2019-03-12T07:32:14.631Z,5160.00
2019-03-12T07:33:14.674Z,5316.00
2019-03-12T07:34:18.171Z,5804.00
2019-03-12T07:35:14.737Z,8388.00
2019-03-12T07:36:14.826Z,14580.00
2019-03-12T07:37:14.828Z,21152.00
2019-03-12T07:38:14.894Z,21920.00
2019-03-12T07:39:14.915Z,22112.00
2019-03-12T07:40:14.948Z,23136.00
2019-03-12T07:41:26.434Z,22368.00
2019-03-12T07:42:15.076Z,23104.00
2019-03-12T07:43:15.103Z,23424.00
2019-03-12T07:44:15.122Z,23520.00
2019-03-12T07:45:15.239Z,24000.00
2019-03-12T07:46:15.206Z,24064.00
2019-03-12T07:47:15.250Z,24448.00
2019-03-12T07:48:15.429Z,24480.00
2019-03-12T07:49:15.336Z,25824.00
2019-03-12T07:50:15.381Z,25984.00
2019-03-12T07:51:15.424Z,26240.00
2019-03-12T07:52:15.473Z,27136.00
2019-03-12T07:53:15.551Z,26304.00
2019-03-12T07:54:15.560Z,25760.00
2019-03-12T07:55:15.606Z,26624.00
2019-03-12T07:56:15.647Z,28736.00
2019-03-12T07:57:15.709Z,29792.00
2019-03-12T07:58:15.771Z,30080.00
2019-03-12T07:59:15.785Z,29120.00
2019-03-12T08:00:15.829Z,28736.00
2019-03-12T08:01:15.877Z,30112.00
2019-03-12T08:02:15.920Z,30368.00
2019-03-12T08:03:16.003Z,29760.00
2019-03-12T08:04:16.048Z,31552.00
2019-03-12T08:05:16.087Z,32416.00
2019-03-12T08:06:16.116Z,31520.00
2019-03-12T08:07:16.155Z,31520.00
2019-03-12T08:08:16.205Z,31264.00
2019-03-12T08:09:16.272Z,31648.00
2019-03-12T08:10:16.298Z,33760.00
2019-03-12T08:11:16.351Z,34144.00
2019-03-12T08:12:16.387Z,32576.00
2019-03-12T08:13:16.439Z,33504.00
2019-03-12T08:14:16.522Z,35776.00
2019-03-12T08:15:22.941Z,36128.00
2019-03-12T08:16:16.573Z,34432.00
2019-03-12T08:17:16.618Z,34912.00
2019-03-12T08:18:16.687Z,37504.00
2019-03-12T08:19:16.741Z,37568.00
2019-03-12T08:20:16.774Z,36288.00
2019-03-12T08:21:22.386Z,36736.00
2019-03-12T08:22:16.943Z,38976.00
2019-03-12T08:23:16.902Z,40736.00
2019-03-12T08:24:16.977Z,40064.00
2019-03-12T08:25:17.008Z,39456.00
2019-03-12T08:26:17.047Z,41600.00
2019-03-12T08:27:17.095Z,41728.00
2019-03-12T08:28:17.152Z,39296.00
2019-03-12T08:29:17.496Z,38848.00
2019-03-12T08:30:17.235Z,42272.00
2019-03-12T08:31:17.283Z,44544.00
2019-03-12T08:32:17.331Z,43104.00
2019-03-12T08:33:17.399Z,40928.00
2019-03-12T08:34:17.447Z,43968.00
2019-03-12T08:35:17.490Z,46176.00
2019-03-12T08:36:17.522Z,43520.00
2019-03-12T08:37:17.574Z,41952.00
2019-03-12T08:38:17.620Z,45408.00
2019-03-12T08:39:17.695Z,46656.00
2019-03-12T08:40:17.721Z,46688.00
2019-03-12T08:41:17.758Z,47040.00
2019-03-12T08:42:17.804Z,47840.00
2019-03-12T08:43:17.872Z,48704.00
2019-03-12T08:44:17.928Z,47808.00
2019-03-12T08:45:17.970Z,46656.00
2019-03-12T08:46:18.386Z,47392.00
2019-03-12T08:47:18.049Z,49824.00
2019-03-12T08:48:18.105Z,51200.00
2019-03-12T08:49:18.152Z,48896.00
2019-03-12T08:50:18.225Z,48512.00
2019-03-12T08:51:18.246Z,52288.00
2019-03-12T08:52:18.286Z,53600.00
2019-03-12T08:53:18.331Z,49728.00
2019-03-12T08:54:21.308Z,47552.00
2019-03-12T08:55:18.467Z,49888.00
2019-03-12T08:56:18.494Z,53664.00
2019-03-12T08:57:18.527Z,55232.00
2019-03-12T08:58:18.588Z,54272.00
2019-03-12T08:59:18.644Z,52544.00
2019-03-12T09:00:18.697Z,52864.00
2019-03-12T09:01:18.847Z,54304.00
2019-03-12T09:02:18.770Z,55072.00
2019-03-12T09:03:18.829Z,53472.00
2019-03-12T09:04:18.864Z,52352.00
2019-03-12T09:05:18.961Z,52384.00
2019-03-12T09:06:18.970Z,54432.00
2019-03-12T09:07:19.026Z,58112.00
2019-03-12T09:08:19.115Z,59808.00
2019-03-12T09:09:19.111Z,58912.00
2019-03-12T09:10:19.273Z,58144.00
2019-03-12T09:11:19.204Z,57632.00
2019-03-12T09:12:19.268Z,59488.00
2019-03-12T09:13:19.306Z,61056.00
2019-03-12T09:14:19.360Z,60096.00
2019-03-12T09:15:19.460Z,58592.00
2019-03-12T09:16:19.449Z,57216.00
2019-03-12T09:17:19.617Z,56064.00
2019-03-12T09:18:19.543Z,57856.00
2019-03-12T09:19:19.603Z,60320.00
2019-03-12T09:20:19.666Z,61312.00
2019-03-12T09:21:19.711Z,61312.00
2019-03-12T09:22:19.741Z,62016.00
2019-03-12T09:23:19.792Z,61952.00
2019-03-12T09:24:19.962Z,60384.00
2019-03-12T09:25:19.884Z,57952.00
2019-03-12T09:26:19.968Z,58368.00
2019-03-12T09:27:19.992Z,60736.00
2019-03-12T09:28:20.037Z,62336.00
2019-03-12T09:29:20.085Z,61984.00
2019-03-12T09:30:20.152Z,64384.00
2019-03-12T09:31:20.230Z,65984.00
2019-03-12T09:32:20.223Z,63456.00
2019-03-12T09:33:20.287Z,58592.00
2019-03-12T09:34:20.325Z,54944.00
2019-03-12T09:35:20.373Z,57504.00
2019-03-12T09:36:20.440Z,62432.00
2019-03-12T09:37:20.468Z,64928.00
2019-03-12T09:38:20.520Z,64864.00
2019-03-12T09:39:20.567Z,65824.00
2019-03-12T09:40:20.619Z,68640.00
2019-03-12T09:41:20.683Z,65440.00
2019-03-12T09:42:20.749Z,58912.00
2019-03-12T09:43:20.791Z,56256.00
2019-03-12T09:44:20.880Z,58592.00
2019-03-12T09:45:20.869Z,64576.00
2019-03-12T09:46:20.913Z,68224.00
2019-03-12T09:47:20.996Z,67520.00
2019-03-12T09:48:21.024Z,65248.00
2019-03-12T09:49:21.065Z,62208.00
2019-03-12T09:50:21.152Z,60928.00
2019-03-12T09:51:21.162Z,61344.00
2019-03-12T09:52:21.237Z,64096.00
2019-03-12T09:53:21.276Z,64864.00
2019-03-12T09:54:21.320Z,60864.00
2019-03-12T09:55:21.360Z,55872.00
2019-03-12T09:56:21.408Z,55040.00
2019-03-12T09:57:21.482Z,59168.00
2019-03-12T09:58:21.512Z,62464.00
2019-03-12T09:59:21.556Z,64768.00
2019-03-12T10:00:21.600Z,64512.00
2019-03-12T10:01:21.649Z,64320.00
2019-03-12T10:02:21.741Z,63968.00
2019-03-12T10:03:21.753Z,64352.00
2019-03-12T10:04:21.899Z,64640.00
2019-03-12T10:05:21.846Z,63808.00
2019-03-12T10:06:21.909Z,64704.00
2019-03-12T10:07:21.985Z,66048.00
2019-03-12T10:08:22.001Z,67296.00
2019-03-12T10:09:22.050Z,64672.00
2019-03-12T10:10:22.093Z,64960.00
2019-03-12T10:11:22.137Z,62848.00
2019-03-12T10:12:22.329Z,63136.00
2019-03-12T10:13:22.264Z,65216.00
2019-03-12T10:14:22.290Z,67360.00
2019-03-12T10:15:22.343Z,67840.00
2019-03-12T10:16:22.387Z,65792.00
2019-03-12T10:17:22.437Z,65312.00
2019-03-12T10:18:22.518Z,66336.00
2019-03-12T10:19:22.627Z,67968.00
2019-03-12T10:20:22.585Z,67616.00
2019-03-12T10:21:22.638Z,66400.00
2019-03-12T10:22:22.680Z,65152.00
2019-03-12T10:23:22.761Z,64608.00
2019-03-12T10:24:22.781Z,65824.00
2019-03-12T10:25:22.822Z,66816.00
2019-03-12T10:26:22.938Z,67744.00
2019-03-12T10:27:22.938Z,66176.00
2019-03-12T10:28:23.004Z,66432.00
2019-03-12T10:29:23.681Z,68800.00
2019-03-12T10:30:23.176Z,69664.00
2019-03-12T10:31:23.119Z,66208.00
2019-03-12T10:32:23.171Z,63040.00
2019-03-12T10:33:23.239Z,63552.00
2019-03-12T10:34:29.658Z,67808.00
2019-03-12T10:35:23.324Z,69792.00
2019-03-12T10:36:23.462Z,70016.00
2019-03-12T10:37:23.475Z,70080.00
2019-03-12T10:38:23.467Z,71648.00
2019-03-12T10:39:23.532Z,74016.00
2019-03-12T10:40:23.567Z,75296.00
2019-03-12T10:41:23.602Z,73888.00
2019-03-12T10:42:23.656Z,71712.00
2019-03-12T10:43:23.704Z,69408.00
2019-03-12T10:44:23.825Z,69472.00
2019-03-12T10:45:23.806Z,72192.00
2019-03-12T10:46:23.852Z,73024.00
2019-03-12T10:47:23.905Z,72224.00
2019-03-12T10:48:23.962Z,70336.00
2019-03-12T10:49:36.686Z,69600.00
2019-03-12T10:50:24.121Z,69184.00
2019-03-12T10:51:24.102Z,68352.00
2019-03-12T10:52:24.151Z,73792.00
2019-03-12T10:53:24.194Z,75392.00
2019-03-12T10:54:24.269Z,74176.00
2019-03-12T10:55:24.296Z,71968.00
2019-03-12T10:56:24.344Z,70752.00
2019-03-12T10:57:24.393Z,72064.00
2019-03-12T10:58:24.442Z,74240.00
2019-03-12T10:59:24.544Z,75104.00
2019-03-12T11:00:24.543Z,74592.00
2019-03-12T11:01:24.586Z,71392.00
2019-03-12T11:02:24.647Z,69568.00
2019-03-12T11:03:24.687Z,74016.00
2019-03-12T11:04:24.756Z,78176.00
2019-03-12T11:05:24.812Z,81152.00
2019-03-12T11:06:24.842Z,79776.00
2019-03-12T11:07:24.883Z,75040.00
2019-03-12T11:08:24.930Z,71904.00
2019-03-12T11:09:24.987Z,71872.00
2019-03-12T11:10:25.160Z,73440.00
2019-03-12T11:11:25.087Z,75200.00
2019-03-12T11:12:25.136Z,73920.00
2019-03-12T11:13:25.174Z,73824.00
2019-03-12T11:14:25.236Z,75584.00
2019-03-12T11:15:25.304Z,80064.00
2019-03-12T11:16:25.327Z,83200.00
2019-03-12T11:17:25.378Z,83456.00
2019-03-12T11:18:25.423Z,83776.00
2019-03-12T11:19:25.477Z,80768.00
2019-03-12T11:20:26.218Z,78752.00
2019-03-12T11:21:25.585Z,77664.00
2019-03-12T11:22:25.622Z,77184.00
2019-03-12T11:23:25.672Z,77024.00
2019-03-12T11:24:25.729Z,75104.00
2019-03-12T11:25:27.627Z,76256.00
2019-03-12T11:26:25.865Z,81184.00
2019-03-12T11:27:25.866Z,84480.00
2019-03-12T11:28:26.817Z,85504.00
2019-03-12T11:29:25.967Z,80064.00
2019-03-12T11:30:26.025Z,74400.00
2019-03-12T11:31:26.083Z,71360.00
2019-03-12T11:32:26.115Z,72960.00
2019-03-12T11:33:26.170Z,77280.00
2019-03-12T11:34:26.209Z,80960.00
2019-03-12T11:35:26.267Z,80224.00
2019-03-12T11:36:26.345Z,82688.00
2019-03-12T11:37:26.364Z,84064.00
2019-03-12T11:38:26.414Z,83904.00
2019-03-12T11:39:26.469Z,83104.00
2019-03-12T11:40:31.635Z,84224.00
2019-03-12T11:41:26.577Z,83616.00
2019-03-12T11:42:26.604Z,81760.00
2019-03-12T11:43:26.656Z,78656.00
2019-03-12T11:44:26.713Z,74112.00
2019-03-12T11:45:36.088Z,74528.00
2019-03-12T11:46:26.838Z,76928.00
2019-03-12T11:47:26.919Z,81600.00
2019-03-12T11:48:26.917Z,85664.00
2019-03-12T11:49:26.955Z,88192.00
2019-03-12T11:50:27.017Z,87552.00
2019-03-12T11:51:27.073Z,86592.00
2019-03-12T11:52:27.121Z,83264.00
2019-03-12T11:53:27.159Z,80448.00
2019-03-12T11:54:27.220Z,79840.00
2019-03-12T11:55:27.309Z,79776.00
2019-03-12T11:56:27.340Z,80128.00
2019-03-12T11:57:27.354Z,78944.00
2019-03-12T11:58:27.407Z,79520.00
2019-03-12T11:59:27.498Z,81536.00
2019-03-12T12:00:27.885Z,84384.00
2019-03-12T12:01:27.577Z,85440.00
2019-03-12T12:02:27.625Z,85952.00
2019-03-12T12:03:27.657Z,87488.00
2019-03-12T12:04:27.714Z,89408.00
2019-03-12T12:05:27.753Z,90784.00
2019-03-12T12:06:27.966Z,91776.00
2019-03-12T12:07:27.985Z,88320.00
2019-03-12T12:08:27.924Z,83616.00
2019-03-12T12:09:27.989Z,79968.00
2019-03-12T12:10:28.015Z,78272.00
2019-03-12T12:11:28.063Z,74688.00
2019-03-12T12:12:28.153Z,77536.00
2019-03-12T12:13:28.250Z,65088.00
2019-03-12T12:14:28.210Z,67072.00
2019-03-12T12:15:28.268Z,80928.00
2019-03-12T12:16:28.314Z,75680.00
2019-03-12T12:17:28.379Z,79168.00
2019-03-12T12:18:28.432Z,78240.00
2019-03-12T12:19:28.461Z,87872.00
2019-03-12T12:20:30.300Z,92800.00
2019-03-12T12:21:28.567Z,92384.00
2019-03-12T12:22:28.655Z,88672.00
2019-03-12T12:23:28.669Z,81056.00
2019-03-12T12:24:28.729Z,74432.00
2019-03-12T12:25:28.777Z,71936.00
2019-03-12T12:26:28.826Z,73728.00
2019-03-12T12:27:28.916Z,78464.00
2019-03-12T12:28:28.955Z,83744.00